Time;durP1;ratioP1;P1;durP2;ratioP2;P2;SDS_P1;SDS_P2;PMS_P1;PMS_P2;Temp;Humidity;BMP_temperature;BMP_pressure;BME280_temperature;BME280_humidity;BME280_pressure;Samples;Min_cycle;Max_cycle;Signal;HPM_P1;HPM_P2
2023/10/09 00:01:58;;;;;;;;;;;14.60;99.90;;;;;;7574147;19;19915;-78
2023/10/09 00:04:31;;;;;;;;;;;14.50;99.90;;;;;;7573856;19;19974;-80
2023/10/09 00:07:07;;;;;;;;;;;14.40;99.90;;;;;;7581241;19;19925;-79
2023/10/09 00:09:46;;;;;;;;;;;14.40;99.90;;;;;;7577652;19;19925;-78
2023/10/09 00:12:22;;;;;;;;;;;14.30;99.90;;;;;;7573432;19;19929;-79
2023/10/09 00:14:55;;;;;;;;;;;14.40;99.90;;;;;;7576079;19;19926;-79
2023/10/09 00:17:31;;;;;;;;;;;14.50;99.90;;;;;;7568461;19;20017;-78
2023/10/09 00:20:08;;;;;;;;;;;14.40;99.90;;;;;;7574082;19;19919;-79
2023/10/09 00:22:45;;;;;;;;;;;14.40;99.90;;;;;;7579151;19;19985;-78
2023/10/09 00:25:29;;;;;;;;;;;14.40;99.90;;;;;;7582646;19;19918;-78
2023/10/09 00:28:03;;;;;;;;;;;14.50;99.90;;;;;;7580596;19;19922;-79
2023/10/09 00:30:35;;;;;;;;;;;14.50;99.90;;;;;;7582675;19;19939;-78
2023/10/09 00:33:09;;;;;;;;;;;14.30;99.90;;;;;;7583782;19;19933;-79
2023/10/09 00:43:43;;;;;;;;;;;14.20;99.90;;;;;;7568894;19;20393;-78
2023/10/09 00:49:02;;;;;;;;;;;14.30;99.90;;;;;;7578338;19;19918;-79
2023/10/09 00:51:35;;;;;;;;;;;14.30;99.90;;;;;;7569702;19;19923;-79
2023/10/09 00:54:14;;;;;;;;;;;14.30;99.90;;;;;;7585906;19;19919;-79
2023/10/09 00:56:57;;;;;;;;;;;14.30;99.90;;;;;;7584897;19;19968;-79
2023/10/09 00:59:30;;;;;;;;;;;14.60;99.90;;;;;;7567003;19;19915;-79
2023/10/09 01:02:06;;;;;;;;;;;14.40;99.90;;;;;;7563231;19;19926;-79
2023/10/09 01:04:43;;;;;;;;;;;14.60;99.90;;;;;;7577292;19;19919;-79
2023/10/09 01:07:16;;;;;;;;;;;14.60;99.90;;;;;;7583066;19;19929;-80
2023/10/09 01:09:51;;;;;;;;;;;14.60;99.90;;;;;;7577273;19;19974;-79
2023/10/09 01:12:23;;;;;;;;;;;14.80;99.90;;;;;;7572138;19;19956;-79
2023/10/09 01:14:55;;;;;;;;;;;14.70;99.90;;;;;;7579293;19;19926;-78
2023/10/09 01:17:45;;;;;;;;;;;14.70;99.90;;;;;;7563693;19;20552;-79
2023/10/09 01:20:27;;;;;;;;;;;14.90;99.90;;;;;;7572513;19;19971;-78
2023/10/09 01:23:00;;;;;;;;;;;14.80;99.90;;;;;;7583128;19;19988;-78
2023/10/09 01:25:42;;;;;;;;;;;14.80;99.90;;;;;;7571565;19;19915;-79
2023/10/09 01:28:15;;;;;;;;;;;14.80;99.90;;;;;;7567335;19;20497;-78
2023/10/09 01:30:48;;;;;;;;;;;14.90;99.90;;;;;;7570109;19;19956;-79
2023/10/09 01:33:27;;;;;;;;;;;14.90;99.90;;;;;;7569753;19;19946;-79
2023/10/09 01:35:59;;;;;;;;;;;14.90;99.90;;;;;;7575087;19;20414;-78
2023/10/09 01:38:44;;;;;;;;;;;14.90;99.90;;;;;;7581807;19;19914;-78
2023/10/09 01:41:19;;;;;;;;;;;14.90;99.90;;;;;;7565641;19;19937;-79
2023/10/09 01:44:00;;;;;;;;;;;15.00;99.90;;;;;;7556330;19;19927;-80
2023/10/09 01:46:33;;;;;;;;;;;15.00;99.90;;;;;;7569728;19;20504;-80
2023/10/09 01:49:10;;;;;;;;;;;15.30;99.90;;;;;;7565171;19;19923;-78
2023/10/09 01:51:42;;;;;;;;;;;15.00;99.90;;;;;;7571556;19;19928;-78
2023/10/09 01:54:33;;;;;;;;;;;15.20;99.90;;;;;;7570796;19;20014;-79
2023/10/09 01:57:09;;;;;;;;;;;15.10;99.90;;;;;;7566309;19;19930;-79
2023/10/09 01:59:49;;;;;;;;;;;15.10;99.90;;;;;;7572704;19;19921;-78
2023/10/09 02:02:25;;;;;;;;;;;15.20;99.90;;;;;;7595064;19;19994;-78
2023/10/09 02:07:53;;;;;;;;;;;15.20;99.90;;;;;;7567118;19;19922;-79
2023/10/09 02:13:11;;;;;;;;;;;15.20;99.90;;;;;;7566042;19;19978;-79
2023/10/09 02:18:39;;;;;;;;;;;15.20;99.90;;;;;;7570235;19;19929;-78
2023/10/09 02:23:49;;;;;;;;;;;15.10;99.90;;;;;;7551834;19;19926;-78
2023/10/09 02:26:26;;;;;;;;;;;15.10;99.90;;;;;;7562186;19;20536;-79
2023/10/09 02:28:58;;;;;;;;;;;15.30;99.90;;;;;;7562648;19;19990;-78
2023/10/09 02:31:41;;;;;;;;;;;15.30;99.90;;;;;;7568569;19;19922;-79
2023/10/09 02:34:15;;;;;;;;;;;15.30;99.90;;;;;;7561076;19;21160;-78
2023/10/09 02:36:53;;;;;;;;;;;15.30;99.90;;;;;;7567864;19;22049;-79
2023/10/09 02:39:36;;;;;;;;;;;15.30;99.90;;;;;;7557835;19;19930;-78
2023/10/09 02:44:47;;;;;;;;;;;15.40;99.90;;;;;;7581471;19;20709;-78
2023/10/09 02:47:29;;;;;;;;;;;15.50;99.90;;;;;;7580384;19;19927;-79
2023/10/09 02:50:09;;;;;;;;;;;15.40;99.90;;;;;;7571411;19;19914;-79
2023/10/09 02:52:41;;;;;;;;;;;15.30;99.90;;;;;;7569175;19;20495;-79
2023/10/09 02:55:23;;;;;;;;;;;15.30;99.90;;;;;;7593678;19;19922;-78
2023/10/09 02:58:11;;;;;;;;;;;15.40;99.90;;;;;;7567572;19;19927;-78
2023/10/09 03:00:44;;;;;;;;;;;15.30;99.90;;;;;;7581506;19;19921;-78
2023/10/09 03:03:16;;;;;;;;;;;15.40;99.90;;;;;;7578510;19;19918;-77
2023/10/09 03:05:49;;;;;;;;;;;15.30;99.90;;;;;;7574390;19;19918;-78
2023/10/09 03:08:22;;;;;;;;;;;15.20;99.90;;;;;;7564815;19;19952;-78
2023/10/09 03:10:54;;;;;;;;;;;15.30;99.90;;;;;;7575949;19;20896;-78
2023/10/09 03:13:28;;;;;;;;;;;15.00;99.90;;;;;;7572836;19;19925;-80
2023/10/09 03:16:02;;;;;;;;;;;15.30;99.90;;;;;;7564893;19;20502;-77
2023/10/09 03:18:34;;;;;;;;;;;15.30;99.90;;;;;;7575280;19;19933;-80
2023/10/09 03:21:07;;;;;;;;;;;15.20;99.90;;;;;;7567742;19;19923;-79
2023/10/09 03:23:40;;;;;;;;;;;15.20;99.90;;;;;;7585064;19;19926;-78
2023/10/09 03:26:12;;;;;;;;;;;15.30;99.90;;;;;;7588729;19;19915;-78
2023/10/09 03:28:53;;;;;;;;;;;15.20;99.90;;;;;;7559462;19;19942;-79
2023/10/09 03:31:26;;;;;;;;;;;15.20;99.90;;;;;;7567224;19;19992;-78
2023/10/09 03:33:59;;;;;;;;;;;15.40;99.90;;;;;;7561681;19;19937;-79
2023/10/09 03:36:37;;;;;;;;;;;15.20;99.90;;;;;;7559251;19;19918;-78
2023/10/09 03:42:04;;;;;;;;;;;15.10;99.90;;;;;;7575552;19;19919;-78
2023/10/09 03:44:41;;;;;;;;;;;15.10;99.90;;;;;;7568007;19;19915;-78
2023/10/09 03:47:16;;;;;;;;;;;15.10;99.90;;;;;;7585402;19;20710;-78
2023/10/09 03:49:51;;;;;;;;;;;15.10;99.90;;;;;;7577399;19;19989;-78
2023/10/09 03:52:27;;;;;;;;;;;15.00;99.90;;;;;;7580272;19;19952;-78
2023/10/09 03:55:00;;;;;;;;;;;15.00;99.90;;;;;;7570477;19;19956;-78
2023/10/09 03:57:32;;;;;;;;;;;15.00;99.90;;;;;;7573502;19;19998;-78
2023/10/09 04:00:10;;;;;;;;;;;15.00;99.90;;;;;;7574539;19;20793;-79
2023/10/09 04:02:42;;;;;;;;;;;15.00;99.90;;;;;;7571867;19;19918;-79
2023/10/09 04:05:16;;;;;;;;;;;14.90;99.90;;;;;;7565128;19;20276;-79
2023/10/09 04:07:53;;;;;;;;;;;15.10;99.90;;;;;;7561451;19;21313;-79
2023/10/09 04:10:43;;;;;;;;;;;14.90;99.90;;;;;;7579177;19;19918;-78
2023/10/09 04:13:22;;;;;;;;;;;14.90;99.90;;;;;;7561812;19;20777;-79
2023/10/09 04:15:55;;;;;;;;;;;15.00;99.90;;;;;;7574999;19;19925;-79
2023/10/09 04:18:32;;;;;;;;;;;14.90;99.90;;;;;;7565344;19;19923;-79
2023/10/09 04:21:18;;;;;;;;;;;15.00;99.90;;;;;;7558645;19;19958;-78
2023/10/09 04:24:09;;;;;;;;;;;15.10;99.90;;;;;;7561511;19;20511;-78
2023/10/09 04:26:44;;;;;;;;;;;14.90;99.90;;;;;;7552824;19;19926;-78
2023/10/09 04:29:37;;;;;;;;;;;15.00;99.90;;;;;;7550609;19;20610;-79
2023/10/09 04:32:15;;;;;;;;;;;14.90;99.90;;;;;;7564804;19;19929;-78
2023/10/09 04:35:19;;;;;;;;;;;14.80;99.90;;;;;;7542016;19;19922;-78
2023/10/09 04:37:44;;;;;;;;;;;14.60;99.90;;;;;;7545177;19;19986;-77
2023/10/09 04:43:10;;;;;;;;;;;14.40;99.90;;;;;;7549315;19;20519;-77
2023/10/09 04:46:12;;;;;;;;;;;15.20;99.90;;;;;;7549871;19;19911;-78
2023/10/09 04:48:45;;;;;;;;;;;14.40;99.90;;;;;;7562790;19;19922;-78
2023/10/09 04:51:21;;;;;;;;;;;14.80;99.90;;;;;;7573404;19;19979;-81
2023/10/09 04:54:12;;;;;;;;;;;14.50;99.90;;;;;;7572077;19;19918;-80
2023/10/09 04:56:53;;;;;;;;;;;14.50;99.90;;;;;;7562424;19;21537;-80
2023/10/09 04:59:26;;;;;;;;;;;14.60;99.90;;;;;;7563457;19;19938;-77
2023/10/09 05:01:59;;;;;;;;;;;14.60;99.90;;;;;;7525494;19;19923;-77
2023/10/09 05:07:49;;;;;;;;;;;14.60;99.90;;;;;;7546554;19;19930;-78
2023/10/09 05:10:17;;;;;;;;;;;14.50;99.90;;;;;;7551648;19;19920;-76
2023/10/09 05:12:56;;;;;;;;;;;14.40;99.90;;;;;;7546274;19;19923;-76
2023/10/09 05:15:34;;;;;;;;;;;14.40;99.90;;;;;;7563219;19;19934;-77
2023/10/09 05:18:09;;;;;;;;;;;14.40;99.90;;;;;;7551568;19;19919;-76
2023/10/09 05:21:05;;;;;;;;;;;14.40;99.90;;;;;;7553599;19;19917;-78
2023/10/09 05:23:44;;;;;;;;;;;14.30;99.90;;;;;;7577287;19;20640;-79
2023/10/09 05:29:24;;;;;;;;;;;14.20;99.90;;;;;;7566163;19;19998;-78
2023/10/09 05:37:43;;;;;;;;;;;14.00;99.90;;;;;;7554426;19;19922;-77
2023/10/09 05:42:59;;;;;;;;;;;13.90;99.90;;;;;;7589963;19;19926;-76
2023/10/09 06:03:16;;;;;;;;;;;13.60;99.90;;;;;;7604052;19;21369;-78
2023/10/09 06:05:40;;;;;;;;;;;13.50;99.90;;;;;;7595192;19;19930;-77
2023/10/09 06:08:12;;;;;;;;;;;13.70;99.90;;;;;;7584256;19;20345;-78
2023/10/09 06:10:47;;;;;;;;;;;13.60;99.90;;;;;;7583648;19;19911;-78
2023/10/09 06:13:37;;;;;;;;;;;13.60;99.90;;;;;;7574676;19;19959;-78
2023/10/09 06:16:19;;;;;;;;;;;13.60;99.90;;;;;;7579757;19;19933;-76
2023/10/09 06:19:07;;;;;;;;;;;13.70;99.90;;;;;;7585372;19;20265;-76
2023/10/09 06:48:56;;;;;;;;;;;15.00;99.90;;;;;;7601259;19;19918;-77
2023/10/09 06:54:07;;;;;;;;;;;15.20;99.90;;;;;;7607577;19;19934;-77
2023/10/09 07:07:16;;;;;;;;;;;15.60;99.90;;;;;;7607531;19;19923;-77
2023/10/09 07:12:44;;;;;;;;;;;15.80;99.90;;;;;;7609307;19;19925;-77
2023/10/09 07:18:19;;;;;;;;;;;15.90;99.90;;;;;;7604151;19;19918;-77
2023/10/09 07:21:11;;;;;;;;;;;;;;;;;;7606730;19;19919;-78
2023/10/09 07:23:49;;;;;;;;;;;16.00;99.90;;;;;;7598423;19;19922;-77
2023/10/09 07:26:25;;;;;;;;;;;16.20;99.90;;;;;;7612792;19;19998;-78
2023/10/09 07:29:16;;;;;;;;;;;16.20;99.90;;;;;;7605732;19;19926;-77
2023/10/09 07:31:56;;;;;;;;;;;16.30;99.90;;;;;;7600887;19;19927;-78
2023/10/09 07:34:43;;;;;;;;;;;;;;;;;;7606147;19;19914;-78
2023/10/09 07:37:19;;;;;;;;;;;16.40;99.90;;;;;;7609631;19;19974;-78
2023/10/09 07:39:57;;;;;;;;;;;16.70;99.90;;;;;;7617057;19;19926;-78
2023/10/09 07:48:04;;;;;;;;;;;17.10;99.90;;;;;;7631223;19;19923;-78
2023/10/09 07:50:49;;;;;;;;;;;17.30;99.90;;;;;;7646166;19;19918;-78
2023/10/09 07:53:26;;;;;;;;;;;17.50;99.90;;;;;;7620044;19;20342;-78
2023/10/09 07:55:58;;;;;;;;;;;17.70;99.90;;;;;;7621740;19;19923;-78
2023/10/09 07:58:33;;;;;;;;;;;17.90;99.90;;;;;;7615737;19;19921;-78
2023/10/09 08:01:08;;;;;;;;;;;18.20;99.90;;;;;;7620112;19;19943;-78
2023/10/09 08:03:40;;;;;;;;;;;18.40;99.90;;;;;;7624725;19;20019;-76
2023/10/09 08:12:04;;;;;;;;;;;18.90;99.90;;;;;;7611810;19;19930;-77
2023/10/09 08:14:43;;;;;;;;;;;19.00;99.90;;;;;;7612448;19;19990;-77
2023/10/09 08:17:15;;;;;;;;;;;19.20;99.90;;;;;;7611424;19;19947;-76
2023/10/09 08:19:54;;;;;;;;;;;19.30;99.90;;;;;;7610598;19;19926;-78
2023/10/09 08:25:02;;;;;;;;;;;19.70;99.50;;;;;;7610274;19;20488;-77
2023/10/09 08:33:03;;;;;;;;;;;19.90;99.20;;;;;;7611051;19;19934;-77
2023/10/09 08:35:47;;;;;;;;;;;20.00;99.40;;;;;;7614719;19;19983;-77
2023/10/09 08:38:23;;;;;;;;;;;20.10;99.00;;;;;;7607251;19;19964;-76
2023/10/09 08:40:58;;;;;;;;;;;20.10;98.40;;;;;;7611162;19;20347;-77
2023/10/09 08:43:33;;;;;;;;;;;20.20;98.00;;;;;;7611464;19;19922;-77
2023/10/09 08:46:05;;;;;;;;;;;20.30;97.90;;;;;;7609426;19;19919;-76
2023/10/09 08:48:39;;;;;;;;;;;20.50;97.50;;;;;;7612900;19;19939;-76
2023/10/09 08:51:14;;;;;;;;;;;20.70;97.80;;;;;;7610421;19;20038;-76
2023/10/09 08:53:46;;;;;;;;;;;20.80;96.90;;;;;;7650766;19;19923;-77
2023/10/09 08:56:22;;;;;;;;;;;21.00;96.50;;;;;;7616998;19;20024;-77
2023/10/09 08:59:02;;;;;;;;;;;21.20;95.40;;;;;;7603667;19;19957;-76
2023/10/09 09:01:34;;;;;;;;;;;21.10;95.80;;;;;;7618832;19;19978;-76
2023/10/09 09:04:08;;;;;;;;;;;21.00;94.90;;;;;;7611437;19;19938;-76
2023/10/09 09:06:41;;;;;;;;;;;21.10;95.30;;;;;;7607332;19;19930;-76
2023/10/09 09:09:16;;;;;;;;;;;21.10;94.40;;;;;;7601697;19;19926;-77
2023/10/09 09:11:48;;;;;;;;;;;21.10;94.60;;;;;;7612343;19;19957;-77
2023/10/09 09:14:36;;;;;;;;;;;21.10;94.40;;;;;;7604655;19;19923;-77
2023/10/09 09:17:11;;;;;;;;;;;21.10;94.90;;;;;;7608972;19;21135;-76
2023/10/09 09:19:48;;;;;;;;;;;21.10;94.40;;;;;;7608103;19;19922;-77
2023/10/09 09:22:21;;;;;;;;;;;21.10;95.30;;;;;;7604271;19;20000;-77
2023/10/09 09:25:01;;;;;;;;;;;21.10;94.80;;;;;;7610045;19;20395;-77
2023/10/09 09:27:52;;;;;;;;;;;21.20;94.20;;;;;;7606776;19;20894;-77
2023/10/09 09:30:31;;;;;;;;;;;21.20;95.10;;;;;;7604239;19;20373;-77
2023/10/09 09:36:14;;;;;;;;;;;21.40;94.30;;;;;;7604565;19;19927;-77
2023/10/09 09:38:50;;;;;;;;;;;21.40;93.50;;;;;;7611143;19;19918;-77
2023/10/09 09:41:24;;;;;;;;;;;21.50;93.90;;;;;;7606818;19;19930;-77
2023/10/09 09:44:00;;;;;;;;;;;21.60;93.20;;;;;;7613546;19;20241;-77
2023/10/09 09:46:33;;;;;;;;;;;21.70;93.00;;;;;;7604222;19;19918;-77
2023/10/09 09:49:16;;;;;;;;;;;21.70;93.00;;;;;;7612262;19;19922;-76
2023/10/09 09:51:49;;;;;;;;;;;21.80;93.20;;;;;;7608335;19;19918;-77
2023/10/09 09:54:22;;;;;;;;;;;21.90;93.40;;;;;;7593499;19;19933;-76
2023/10/09 09:57:00;;;;;;;;;;;21.90;92.30;;;;;;7598046;19;19926;-76
2023/10/09 09:59:36;;;;;;;;;;;21.90;92.70;;;;;;7582730;19;19923;-76
2023/10/09 10:02:17;;;;;;;;;;;21.90;92.30;;;;;;7590066;19;19923;-77
2023/10/09 10:04:52;;;;;;;;;;;21.90;92.20;;;;;;7592062;19;19930;-77
2023/10/09 10:07:28;;;;;;;;;;;21.90;92.50;;;;;;7596720;19;20464;-76
2023/10/09 10:10:00;;;;;;;;;;;22.00;92.80;;;;;;7593481;19;20268;-76
2023/10/09 10:12:46;;;;;;;;;;;21.90;92.60;;;;;;7593708;19;19922;-76
2023/10/09 10:15:18;;;;;;;;;;;22.00;92.10;;;;;;7592186;19;19922;-74
2023/10/09 10:17:58;;;;;;;;;;;22.00;91.90;;;;;;7584715;19;19970;-75
2023/10/09 10:20:31;;;;;;;;;;;22.10;92.10;;;;;;7584284;19;19926;-75
2023/10/09 10:23:20;;;;;;;;;;;22.10;92.60;;;;;;7584363;19;19919;-76
2023/10/09 10:25:59;;;;;;;;;;;22.20;93.20;;;;;;7587220;19;19910;-76
2023/10/09 10:28:38;;;;;;;;;;;22.30;91.90;;;;;;7572643;19;21192;-75
2023/10/09 10:31:13;;;;;;;;;;;22.40;91.60;;;;;;7591701;19;20337;-75
2023/10/09 10:33:53;;;;;;;;;;;22.50;90.30;;;;;;7586929;19;20001;-75
2023/10/09 10:36:29;;;;;;;;;;;22.70;90.10;;;;;;7583546;19;19926;-76
2023/10/09 10:39:04;;;;;;;;;;;22.90;90.80;;;;;;7595411;19;19939;-75
2023/10/09 10:41:50;;;;;;;;;;;23.00;89.40;;;;;;7583027;19;19930;-75
2023/10/09 10:44:41;;;;;;;;;;;23.10;90.50;;;;;;7598500;19;19925;-74
2023/10/09 10:47:24;;;;;;;;;;;23.10;88.50;;;;;;7596157;19;20407;-75
2023/10/09 10:49:58;;;;;;;;;;;23.20;86.10;;;;;;7595051;19;19956;-75
2023/10/09 10:52:44;;;;;;;;;;;23.20;87.10;;;;;;7594261;19;20308;-76
2023/10/09 10:55:18;;;;;;;;;;;23.20;88.10;;;;;;7600431;19;19922;-74
2023/10/09 10:57:53;;;;;;;;;;;23.20;83.40;;;;;;7595977;19;19926;-74
2023/10/09 11:03:29;;;;;;;;;;;23.10;84.20;;;;;;7582477;19;19922;-75
2023/10/09 11:06:13;;;;;;;;;;;23.10;84.30;;;;;;7603850;19;19918;-74
2023/10/09 11:09:35;;;;;;;;;;;23.10;83.60;;;;;;7593258;19;19914;-73
2023/10/09 11:11:46;;;;;;;;;;;22.90;81.20;;;;;;7597499;19;19960;-74
2023/10/09 11:14:23;;;;;;;;;;;23.10;82.70;;;;;;7597088;19;19922;-74
2023/10/09 11:17:02;;;;;;;;;;;23.10;82.10;;;;;;7595165;19;19926;-74
2023/10/09 11:19:39;;;;;;;;;;;23.30;82.00;;;;;;7585705;19;20008;-75
2023/10/09 11:24:46;;;;;;;;;;;23.50;79.60;;;;;;7544743;19;20575;-75
2023/10/09 11:27:20;;;;;;;;;;;23.70;79.00;;;;;;7537265;19;19941;-75
2023/10/09 11:29:52;;;;;;;;;;;24.60;78.30;;;;;;7548247;19;20604;-74
2023/10/09 11:32:25;;;;;;;;;;;25.30;76.10;;;;;;7560431;19;19934;-74
2023/10/09 11:34:58;;;;;;;;;;;;;;;;;;7557484;19;19923;-76
